sensor_id;sensor_type;location;lat;lon;timestamp;P1;durP1;ratioP1;P2;durP2;ratioP2
12774;SDS011;6451;42.630;23.382;2023-03-22T00:02:25;8.93;;;8.03;;
12774;SDS011;6451;42.630;23.382;2023-03-22T00:04:54;9.07;;;7.83;;
12774;SDS011;6451;42.630;23.382;2023-03-22T00:07:21;8.90;;;8.10;;
12774;SDS011;6451;42.630;23.382;2023-03-22T00:09:48;7.80;;;7.00;;
12774;SDS011;6451;42.630;23.382;2023-03-22T00:12:16;8.10;;;7.30;;
12774;SDS011;6451;42.630;23.382;2023-03-22T00:14:44;7.30;;;6.70;;
12774;SDS011;6451;42.630;23.382;2023-03-22T00:17:11;6.90;;;6.23;;
12774;SDS011;6451;42.630;23.382;2023-03-22T00:19:40;7.77;;;6.87;;
12774;SDS011;6451;42.630;23.382;2023-03-22T00:22:09;6.97;;;6.30;;
12774;SDS011;6451;42.630;23.382;2023-03-22T00:24:35;7.10;;;6.10;;
12774;SDS011;6451;42.630;23.382;2023-03-22T00:27:02;6.33;;;5.70;;
12774;SDS011;6451;42.630;23.382;2023-03-22T00:29:31;3.80;;;3.50;;
12774;SDS011;6451;42.630;23.382;2023-03-22T00:31:59;6.13;;;4.33;;
12774;SDS011;6451;42.630;23.382;2023-03-22T00:34:29;5.00;;;4.40;;
12774;SDS011;6451;42.630;23.382;2023-03-22T00:36:56;5.57;;;4.47;;
12774;SDS011;6451;42.630;23.382;2023-03-22T00:39:24;5.10;;;4.60;;
12774;SDS011;6451;42.630;23.382;2023-03-22T00:41:51;5.00;;;4.60;;
12774;SDS011;6451;42.630;23.382;2023-03-22T00:44:19;5.50;;;4.90;;
12774;SDS011;6451;42.630;23.382;2023-03-22T00:46:50;5.20;;;4.70;;
12774;SDS011;6451;42.630;23.382;2023-03-22T00:49:17;4.73;;;4.30;;
12774;SDS011;6451;42.630;23.382;2023-03-22T00:51:45;5.20;;;4.07;;
12774;SDS011;6451;42.630;23.382;2023-03-22T00:54:12;4.50;;;4.10;;
12774;SDS011;6451;42.630;23.382;2023-03-22T00:56:41;4.50;;;4.10;;
12774;SDS011;6451;42.630;23.382;2023-03-22T00:59:09;3.57;;;3.27;;
12774;SDS011;6451;42.630;23.382;2023-03-22T01:01:36;3.83;;;3.30;;
12774;SDS011;6451;42.630;23.382;2023-03-22T01:04:05;4.33;;;3.27;;
12774;SDS011;6451;42.630;23.382;2023-03-22T01:06:32;3.20;;;3.00;;
12774;SDS011;6451;42.630;23.382;2023-03-22T01:08:59;4.43;;;3.40;;
12774;SDS011;6451;42.630;23.382;2023-03-22T01:11:26;3.63;;;3.33;;
12774;SDS011;6451;42.630;23.382;2023-03-22T01:13:53;3.97;;;3.67;;
12774;SDS011;6451;42.630;23.382;2023-03-22T01:16:21;4.00;;;3.70;;
12774;SDS011;6451;42.630;23.382;2023-03-22T01:18:48;4.30;;;3.80;;
12774;SDS011;6451;42.630;23.382;2023-03-22T01:21:16;4.40;;;4.00;;
12774;SDS011;6451;42.630;23.382;2023-03-22T01:23:43;5.20;;;4.00;;
12774;SDS011;6451;42.630;23.382;2023-03-22T01:26:10;5.00;;;4.50;;
12774;SDS011;6451;42.630;23.382;2023-03-22T01:28:38;4.60;;;4.20;;
12774;SDS011;6451;42.630;23.382;2023-03-22T01:31:05;5.23;;;4.73;;
12774;SDS011;6451;42.630;23.382;2023-03-22T01:33:32;5.70;;;5.20;;
12774;SDS011;6451;42.630;23.382;2023-03-22T01:35:59;6.20;;;5.60;;
12774;SDS011;6451;42.630;23.382;2023-03-22T01:38:28;6.33;;;5.73;;
12774;SDS011;6451;42.630;23.382;2023-03-22T01:40:56;6.10;;;5.50;;
12774;SDS011;6451;42.630;23.382;2023-03-22T01:43:23;7.33;;;6.50;;
12774;SDS011;6451;42.630;23.382;2023-03-22T01:45:52;6.80;;;6.10;;
12774;SDS011;6451;42.630;23.382;2023-03-22T01:48:22;7.17;;;6.00;;
12774;SDS011;6451;42.630;23.382;2023-03-22T01:50:55;6.07;;;5.47;;
12774;SDS011;6451;42.630;23.382;2023-03-22T01:53:32;6.23;;;5.63;;
12774;SDS011;6451;42.630;23.382;2023-03-22T01:56:02;6.30;;;5.70;;
12774;SDS011;6451;42.630;23.382;2023-03-22T01:58:30;7.17;;;6.47;;
12774;SDS011;6451;42.630;23.382;2023-03-22T02:00:59;6.03;;;5.50;;
12774;SDS011;6451;42.630;23.382;2023-03-22T02:03:29;6.23;;;5.63;;
12774;SDS011;6451;42.630;23.382;2023-03-22T02:06:02;6.03;;;5.43;;
12774;SDS011;6451;42.630;23.382;2023-03-22T02:08:29;6.27;;;5.77;;
12774;SDS011;6451;42.630;23.382;2023-03-22T02:10:59;6.60;;;5.97;;
12774;SDS011;6451;42.630;23.382;2023-03-22T02:13:34;6.20;;;5.60;;
12774;SDS011;6451;42.630;23.382;2023-03-22T02:16:16;6.33;;;5.73;;
12774;SDS011;6451;42.630;23.382;2023-03-22T02:18:58;5.40;;;4.97;;
12774;SDS011;6451;42.630;23.382;2023-03-22T02:21:55;5.17;;;4.70;;
12774;SDS011;6451;42.630;23.382;2023-03-22T02:24:45;5.70;;;5.10;;
12774;SDS011;6451;42.630;23.382;2023-03-22T02:27:34;5.90;;;5.40;;
12774;SDS011;6451;42.630;23.382;2023-03-22T02:30:24;5.40;;;4.90;;
12774;SDS011;6451;42.630;23.382;2023-03-22T02:33:12;4.73;;;4.33;;
12774;SDS011;6451;42.630;23.382;2023-03-22T02:36:04;6.07;;;4.63;;
12774;SDS011;6451;42.630;23.382;2023-03-22T02:39:07;4.70;;;4.30;;
12774;SDS011;6451;42.630;23.382;2023-03-22T02:41:46;5.80;;;5.03;;
12774;SDS011;6451;42.630;23.382;2023-03-22T02:44:25;5.37;;;4.87;;
12774;SDS011;6451;42.630;23.382;2023-03-22T02:47:03;5.43;;;4.93;;
12774;SDS011;6451;42.630;23.382;2023-03-22T02:49:34;4.83;;;4.43;;
12774;SDS011;6451;42.630;23.382;2023-03-22T02:52:08;5.10;;;4.60;;
12774;SDS011;6451;42.630;23.382;2023-03-22T02:54:43;5.30;;;4.43;;
12774;SDS011;6451;42.630;23.382;2023-03-22T02:57:17;4.60;;;4.20;;
12774;SDS011;6451;42.630;23.382;2023-03-22T02:59:50;4.70;;;4.30;;
12774;SDS011;6451;42.630;23.382;2023-03-22T03:02:18;5.83;;;4.40;;
12774;SDS011;6451;42.630;23.382;2023-03-22T03:04:48;4.23;;;3.83;;
12774;SDS011;6451;42.630;23.382;2023-03-22T03:07:18;4.10;;;3.80;;
12774;SDS011;6451;42.630;23.382;2023-03-22T03:09:51;5.53;;;4.03;;
12774;SDS011;6451;42.630;23.382;2023-03-22T03:12:19;4.20;;;3.80;;
12774;SDS011;6451;42.630;23.382;2023-03-22T03:14:48;4.20;;;3.80;;
12774;SDS011;6451;42.630;23.382;2023-03-22T03:17:28;3.80;;;3.50;;
12774;SDS011;6451;42.630;23.382;2023-03-22T03:23:03;4.13;;;3.30;;
12774;SDS011;6451;42.630;23.382;2023-03-22T03:25:44;3.63;;;3.00;;
12774;SDS011;6451;42.630;23.382;2023-03-22T03:28:23;3.07;;;2.77;;
12774;SDS011;6451;42.630;23.382;2023-03-22T03:31:04;2.80;;;2.60;;
12774;SDS011;6451;42.630;23.382;2023-03-22T03:33:38;2.80;;;2.60;;
12774;SDS011;6451;42.630;23.382;2023-03-22T03:36:12;2.50;;;2.30;;
12774;SDS011;6451;42.630;23.382;2023-03-22T03:38:43;3.73;;;2.57;;
12774;SDS011;6451;42.630;23.382;2023-03-22T03:41:16;2.87;;;2.60;;
12774;SDS011;6451;42.630;23.382;2023-03-22T03:43:45;2.67;;;2.47;;
12774;SDS011;6451;42.630;23.382;2023-03-22T03:46:14;3.00;;;2.57;;
12774;SDS011;6451;42.630;23.382;2023-03-22T03:48:41;2.80;;;2.60;;
12774;SDS011;6451;42.630;23.382;2023-03-22T03:51:13;3.00;;;2.70;;
12774;SDS011;6451;42.630;23.382;2023-03-22T03:53:40;3.10;;;2.60;;
12774;SDS011;6451;42.630;23.382;2023-03-22T03:56:07;3.13;;;2.70;;
12774;SDS011;6451;42.630;23.382;2023-03-22T03:58:36;2.73;;;2.50;;
12774;SDS011;6451;42.630;23.382;2023-03-22T04:01:03;3.00;;;2.70;;
12774;SDS011;6451;42.630;23.382;2023-03-22T04:03:30;2.60;;;2.40;;
12774;SDS011;6451;42.630;23.382;2023-03-22T04:05:57;3.20;;;2.90;;
12774;SDS011;6451;42.630;23.382;2023-03-22T04:08:25;3.47;;;2.83;;
12774;SDS011;6451;42.630;23.382;2023-03-22T04:10:52;3.00;;;2.70;;
12774;SDS011;6451;42.630;23.382;2023-03-22T04:13:19;3.10;;;2.90;;
12774;SDS011;6451;42.630;23.382;2023-03-22T04:15:52;3.20;;;2.90;;
12774;SDS011;6451;42.630;23.382;2023-03-22T04:18:21;3.20;;;2.90;;
12774;SDS011;6451;42.630;23.382;2023-03-22T04:20:48;3.50;;;3.20;;
12774;SDS011;6451;42.630;23.382;2023-03-22T04:23:17;3.83;;;3.13;;
12774;SDS011;6451;42.630;23.382;2023-03-22T04:25:46;3.20;;;2.90;;
12774;SDS011;6451;42.630;23.382;2023-03-22T04:28:14;3.57;;;3.20;;
12774;SDS011;6451;42.630;23.382;2023-03-22T04:30:44;3.20;;;3.00;;
12774;SDS011;6451;42.630;23.382;2023-03-22T04:33:17;3.60;;;3.30;;
12774;SDS011;6451;42.630;23.382;2023-03-22T04:35:47;3.70;;;3.40;;
12774;SDS011;6451;42.630;23.382;2023-03-22T04:38:14;3.83;;;3.33;;
12774;SDS011;6451;42.630;23.382;2023-03-22T04:40:42;3.70;;;3.40;;
12774;SDS011;6451;42.630;23.382;2023-03-22T04:43:14;3.50;;;3.20;;
12774;SDS011;6451;42.630;23.382;2023-03-22T04:45:43;4.33;;;3.93;;
12774;SDS011;6451;42.630;23.382;2023-03-22T04:48:10;4.30;;;3.90;;
12774;SDS011;6451;42.630;23.382;2023-03-22T04:50:39;4.17;;;3.77;;
12774;SDS011;6451;42.630;23.382;2023-03-22T04:53:06;4.70;;;4.30;;
12774;SDS011;6451;42.630;23.382;2023-03-22T04:55:34;6.53;;;3.90;;
12774;SDS011;6451;42.630;23.382;2023-03-22T04:58:00;4.50;;;4.10;;
12774;SDS011;6451;42.630;23.382;2023-03-22T05:00:27;4.60;;;4.20;;
12774;SDS011;6451;42.630;23.382;2023-03-22T05:02:54;4.63;;;4.23;;
12774;SDS011;6451;42.630;23.382;2023-03-22T05:05:22;4.47;;;4.07;;
12774;SDS011;6451;42.630;23.382;2023-03-22T05:07:50;4.63;;;4.23;;
12774;SDS011;6451;42.630;23.382;2023-03-22T05:10:17;4.57;;;4.17;;
12774;SDS011;6451;42.630;23.382;2023-03-22T05:12:44;4.53;;;4.13;;
12774;SDS011;6451;42.630;23.382;2023-03-22T05:15:11;4.77;;;4.37;;
12774;SDS011;6451;42.630;23.382;2023-03-22T05:17:38;4.73;;;4.33;;
12774;SDS011;6451;42.630;23.382;2023-03-22T05:20:05;5.00;;;4.50;;
12774;SDS011;6451;42.630;23.382;2023-03-22T05:22:34;4.60;;;4.23;;
12774;SDS011;6451;42.630;23.382;2023-03-22T05:25:07;5.20;;;4.60;;
12774;SDS011;6451;42.630;23.382;2023-03-22T05:27:35;5.37;;;4.63;;
12774;SDS011;6451;42.630;23.382;2023-03-22T05:30:11;4.87;;;4.43;;
12774;SDS011;6451;42.630;23.382;2023-03-22T05:32:39;5.67;;;4.70;;
12774;SDS011;6451;42.630;23.382;2023-03-22T05:35:08;5.33;;;4.83;;
12774;SDS011;6451;42.630;23.382;2023-03-22T05:37:35;5.17;;;4.67;;
12774;SDS011;6451;42.630;23.382;2023-03-22T05:40:02;6.73;;;5.00;;
12774;SDS011;6451;42.630;23.382;2023-03-22T05:42:35;4.70;;;4.30;;
12774;SDS011;6451;42.630;23.382;2023-03-22T05:45:02;5.17;;;4.77;;
12774;SDS011;6451;42.630;23.382;2023-03-22T05:47:29;5.70;;;5.03;;
12774;SDS011;6451;42.630;23.382;2023-03-22T05:49:56;5.93;;;5.33;;
12774;SDS011;6451;42.630;23.382;2023-03-22T05:52:23;6.07;;;5.27;;
12774;SDS011;6451;42.630;23.382;2023-03-22T05:54:50;5.67;;;5.13;;
12774;SDS011;6451;42.630;23.382;2023-03-22T05:57:17;5.30;;;4.80;;
12774;SDS011;6451;42.630;23.382;2023-03-22T05:59:46;5.03;;;4.63;;
12774;SDS011;6451;42.630;23.382;2023-03-22T06:02:13;5.07;;;4.57;;
12774;SDS011;6451;42.630;23.382;2023-03-22T06:04:40;4.83;;;4.43;;
12774;SDS011;6451;42.630;23.382;2023-03-22T06:07:06;5.13;;;4.70;;
12774;SDS011;6451;42.630;23.382;2023-03-22T06:09:33;5.23;;;4.83;;
12774;SDS011;6451;42.630;23.382;2023-03-22T06:12:00;5.27;;;4.77;;
12774;SDS011;6451;42.630;23.382;2023-03-22T06:14:27;5.70;;;5.20;;
12774;SDS011;6451;42.630;23.382;2023-03-22T06:16:55;5.63;;;5.03;;
12774;SDS011;6451;42.630;23.382;2023-03-22T06:19:22;7.70;;;5.07;;
12774;SDS011;6451;42.630;23.382;2023-03-22T06:21:49;5.70;;;5.20;;
12774;SDS011;6451;42.630;23.382;2023-03-22T06:24:17;5.60;;;5.10;;
12774;SDS011;6451;42.630;23.382;2023-03-22T06:26:44;6.90;;;5.73;;
12774;SDS011;6451;42.630;23.382;2023-03-22T06:29:11;7.07;;;6.37;;
12774;SDS011;6451;42.630;23.382;2023-03-22T06:31:38;6.90;;;6.30;;
12774;SDS011;6451;42.630;23.382;2023-03-22T06:34:06;8.30;;;6.80;;
12774;SDS011;6451;42.630;23.382;2023-03-22T06:36:33;7.50;;;6.80;;
12774;SDS011;6451;42.630;23.382;2023-03-22T06:39:00;7.10;;;6.50;;
12774;SDS011;6451;42.630;23.382;2023-03-22T06:41:31;9.07;;;6.57;;
12774;SDS011;6451;42.630;23.382;2023-03-22T06:43:58;7.53;;;6.20;;
12774;SDS011;6451;42.630;23.382;2023-03-22T06:46:24;7.63;;;6.47;;
12774;SDS011;6451;42.630;23.382;2023-03-22T06:48:51;7.50;;;6.03;;
12774;SDS011;6451;42.630;23.382;2023-03-22T06:51:21;5.97;;;5.33;;
12774;SDS011;6451;42.630;23.382;2023-03-22T06:53:47;6.37;;;5.30;;
12774;SDS011;6451;42.630;23.382;2023-03-22T06:56:16;5.87;;;5.37;;
12774;SDS011;6451;42.630;23.382;2023-03-22T06:58:43;6.87;;;5.73;;
12774;SDS011;6451;42.630;23.382;2023-03-22T07:01:10;6.60;;;5.63;;
12774;SDS011;6451;42.630;23.382;2023-03-22T07:03:37;11.97;;;10.77;;
12774;SDS011;6451;42.630;23.382;2023-03-22T07:06:07;8.17;;;6.03;;
12774;SDS011;6451;42.630;23.382;2023-03-22T07:08:40;7.07;;;6.47;;
12774;SDS011;6451;42.630;23.382;2023-03-22T07:11:07;9.97;;;6.50;;
12774;SDS011;6451;42.630;23.382;2023-03-22T07:13:34;6.27;;;5.63;;
12774;SDS011;6451;42.630;23.382;2023-03-22T07:16:01;8.60;;;7.07;;
12774;SDS011;6451;42.630;23.382;2023-03-22T07:18:29;8.10;;;5.70;;
12774;SDS011;6451;42.630;23.382;2023-03-22T07:20:56;9.77;;;7.50;;
12774;SDS011;6451;42.630;23.382;2023-03-22T07:23:23;8.03;;;7.20;;
12774;SDS011;6451;42.630;23.382;2023-03-22T07:25:52;6.80;;;6.10;;
12774;SDS011;6451;42.630;23.382;2023-03-22T07:28:21;8.03;;;6.00;;
12774;SDS011;6451;42.630;23.382;2023-03-22T07:30:48;6.27;;;5.67;;
12774;SDS011;6451;42.630;23.382;2023-03-22T07:33:15;6.10;;;5.50;;
12774;SDS011;6451;42.630;23.382;2023-03-22T07:35:42;5.70;;;4.90;;
12774;SDS011;6451;42.630;23.382;2023-03-22T07:38:10;6.10;;;5.50;;
12774;SDS011;6451;42.630;23.382;2023-03-22T07:40:37;6.73;;;5.63;;
12774;SDS011;6451;42.630;23.382;2023-03-22T07:43:05;6.73;;;6.10;;
12774;SDS011;6451;42.630;23.382;2023-03-22T07:45:32;7.23;;;5.63;;
12774;SDS011;6451;42.630;23.382;2023-03-22T07:47:59;6.57;;;5.87;;
12774;SDS011;6451;42.630;23.382;2023-03-22T07:50:27;8.07;;;5.93;;
12774;SDS011;6451;42.630;23.382;2023-03-22T07:52:54;8.17;;;6.53;;
12774;SDS011;6451;42.630;23.382;2023-03-22T07:55:23;9.33;;;7.10;;
12774;SDS011;6451;42.630;23.382;2023-03-22T07:57:51;17.03;;;13.13;;
12774;SDS011;6451;42.630;23.382;2023-03-22T08:00:21;5.93;;;5.33;;
12774;SDS011;6451;42.630;23.382;2023-03-22T08:02:48;5.30;;;4.80;;
12774;SDS011;6451;42.630;23.382;2023-03-22T08:05:15;4.53;;;3.53;;
12774;SDS011;6451;42.630;23.382;2023-03-22T08:07:42;3.83;;;3.47;;
12774;SDS011;6451;42.630;23.382;2023-03-22T08:10:12;5.17;;;3.97;;
12774;SDS011;6451;42.630;23.382;2023-03-22T08:12:40;4.53;;;3.73;;
12774;SDS011;6451;42.630;23.382;2023-03-22T08:15:10;3.87;;;3.50;;
12774;SDS011;6451;42.630;23.382;2023-03-22T08:17:38;5.00;;;3.37;;
12774;SDS011;6451;42.630;23.382;2023-03-22T08:20:14;5.37;;;3.80;;
12774;SDS011;6451;42.630;23.382;2023-03-22T08:22:43;4.30;;;3.43;;
12774;SDS011;6451;42.630;23.382;2023-03-22T08:25:11;4.57;;;4.00;;
12774;SDS011;6451;42.630;23.382;2023-03-22T08:27:38;9.07;;;4.97;;
12774;SDS011;6451;42.630;23.382;2023-03-22T08:30:06;6.57;;;5.07;;
12774;SDS011;6451;42.630;23.382;2023-03-22T08:32:34;6.63;;;5.00;;
12774;SDS011;6451;42.630;23.382;2023-03-22T08:35:04;7.63;;;4.63;;
12774;SDS011;6451;42.630;23.382;2023-03-22T08:37:32;6.80;;;4.87;;
12774;SDS011;6451;42.630;23.382;2023-03-22T08:39:59;8.37;;;5.00;;
12774;SDS011;6451;42.630;23.382;2023-03-22T08:42:27;6.47;;;5.07;;
12774;SDS011;6451;42.630;23.382;2023-03-22T08:44:55;6.13;;;5.00;;
12774;SDS011;6451;42.630;23.382;2023-03-22T08:47:23;5.43;;;4.60;;
12774;SDS011;6451;42.630;23.382;2023-03-22T08:49:50;6.17;;;5.17;;
12774;SDS011;6451;42.630;23.382;2023-03-22T08:52:20;6.07;;;4.30;;
12774;SDS011;6451;42.630;23.382;2023-03-22T08:54:47;10.63;;;5.57;;
12774;SDS011;6451;42.630;23.382;2023-03-22T08:57:16;5.63;;;4.53;;
12774;SDS011;6451;42.630;23.382;2023-03-22T08:59:45;5.90;;;4.20;;
12774;SDS011;6451;42.630;23.382;2023-03-22T09:02:12;5.43;;;3.83;;
12774;SDS011;6451;42.630;23.382;2023-03-22T09:04:40;4.30;;;3.90;;
12774;SDS011;6451;42.630;23.382;2023-03-22T09:07:07;4.20;;;3.60;;
12774;SDS011;6451;42.630;23.382;2023-03-22T09:09:36;6.33;;;4.17;;
12774;SDS011;6451;42.630;23.382;2023-03-22T09:12:03;4.40;;;4.00;;
12774;SDS011;6451;42.630;23.382;2023-03-22T09:14:30;4.80;;;4.30;;
12774;SDS011;6451;42.630;23.382;2023-03-22T09:16:57;5.43;;;4.03;;
12774;SDS011;6451;42.630;23.382;2023-03-22T09:19:25;5.30;;;4.50;;
12774;SDS011;6451;42.630;23.382;2023-03-22T09:21:52;4.47;;;4.03;;
12774;SDS011;6451;42.630;23.382;2023-03-22T09:24:19;6.37;;;5.40;;
12774;SDS011;6451;42.630;23.382;2023-03-22T09:26:47;8.20;;;5.40;;
12774;SDS011;6451;42.630;23.382;2023-03-22T09:29:15;7.00;;;5.63;;
12774;SDS011;6451;42.630;23.382;2023-03-22T09:31:43;7.17;;;5.70;;
12774;SDS011;6451;42.630;23.382;2023-03-22T09:34:13;8.40;;;5.70;;
12774;SDS011;6451;42.630;23.382;2023-03-22T09:36:40;7.93;;;6.47;;
12774;SDS011;6451;42.630;23.382;2023-03-22T09:39:07;7.40;;;6.57;;
12774;SDS011;6451;42.630;23.382;2023-03-22T09:41:35;9.30;;;6.60;;
12774;SDS011;6451;42.630;23.382;2023-03-22T09:44:07;8.33;;;7.03;;
12774;SDS011;6451;42.630;23.382;2023-03-22T09:46:40;10.40;;;7.80;;
12774;SDS011;6451;42.630;23.382;2023-03-22T09:49:12;9.20;;;7.93;;
12774;SDS011;6451;42.630;23.382;2023-03-22T09:51:44;11.67;;;8.47;;
12774;SDS011;6451;42.630;23.382;2023-03-22T09:54:13;13.50;;;8.70;;
12774;SDS011;6451;42.630;23.382;2023-03-22T09:56:43;12.30;;;10.10;;
12774;SDS011;6451;42.630;23.382;2023-03-22T09:59:16;14.47;;;11.17;;
12774;SDS011;6451;42.630;23.382;2023-03-22T10:01:52;13.77;;;11.60;;
12774;SDS011;6451;42.630;23.382;2023-03-22T10:04:38;12.17;;;10.87;;
12774;SDS011;6451;42.630;23.382;2023-03-22T10:07:20;13.17;;;11.57;;
12774;SDS011;6451;42.630;23.382;2023-03-22T10:09:56;15.10;;;11.30;;
12774;SDS011;6451;42.630;23.382;2023-03-22T10:12:37;12.37;;;10.20;;
12774;SDS011;6451;42.630;23.382;2023-03-22T10:15:12;10.33;;;8.67;;
12774;SDS011;6451;42.630;23.382;2023-03-22T10:17:41;9.33;;;8.43;;
12774;SDS011;6451;42.630;23.382;2023-03-22T10:20:17;9.27;;;8.37;;
12774;SDS011;6451;42.630;23.382;2023-03-22T10:22:50;11.47;;;9.03;;
12774;SDS011;6451;42.630;23.382;2023-03-22T10:25:23;9.87;;;8.87;;
12774;SDS011;6451;42.630;23.382;2023-03-22T10:27:58;9.83;;;8.23;;
12774;SDS011;6451;42.630;23.382;2023-03-22T10:30:27;10.27;;;7.80;;
12774;SDS011;6451;42.630;23.382;2023-03-22T10:32:59;8.30;;;7.50;;
12774;SDS011;6451;42.630;23.382;2023-03-22T10:35:28;9.13;;;7.67;;
12774;SDS011;6451;42.630;23.382;2023-03-22T10:37:57;8.90;;;7.97;;
12774;SDS011;6451;42.630;23.382;2023-03-22T10:40:29;8.63;;;6.90;;
12774;SDS011;6451;42.630;23.382;2023-03-22T10:43:00;10.37;;;8.17;;
12774;SDS011;6451;42.630;23.382;2023-03-22T10:45:32;9.40;;;7.90;;
12774;SDS011;6451;42.630;23.382;2023-03-22T10:48:02;9.23;;;7.87;;
12774;SDS011;6451;42.630;23.382;2023-03-22T10:50:34;9.03;;;7.13;;
12774;SDS011;6451;42.630;23.382;2023-03-22T10:53:04;8.67;;;7.67;;
12774;SDS011;6451;42.630;23.382;2023-03-22T10:55:37;8.37;;;7.57;;
12774;SDS011;6451;42.630;23.382;2023-03-22T10:58:10;7.80;;;7.00;;
12774;SDS011;6451;42.630;23.382;2023-03-22T11:00:55;8.60;;;7.70;;
12774;SDS011;6451;42.630;23.382;2023-03-22T11:03:26;7.77;;;6.97;;
12774;SDS011;6451;42.630;23.382;2023-03-22T11:06:02;7.87;;;6.33;;
12774;SDS011;6451;42.630;23.382;2023-03-22T11:08:42;6.67;;;5.97;;
12774;SDS011;6451;42.630;23.382;2023-03-22T11:11:19;7.30;;;5.80;;
12774;SDS011;6451;42.630;23.382;2023-03-22T11:13:52;6.67;;;6.00;;
12774;SDS011;6451;42.630;23.382;2023-03-22T11:16:23;6.43;;;5.83;;
12774;SDS011;6451;42.630;23.382;2023-03-22T11:18:50;6.90;;;6.20;;
12774;SDS011;6451;42.630;23.382;2023-03-22T11:21:18;6.10;;;5.17;;
12774;SDS011;6451;42.630;23.382;2023-03-22T11:23:52;5.47;;;4.87;;
12774;SDS011;6451;42.630;23.382;2023-03-22T11:26:26;4.90;;;4.50;;
12774;SDS011;6451;42.630;23.382;2023-03-22T11:29:00;6.33;;;4.97;;
12774;SDS011;6451;42.630;23.382;2023-03-22T11:34:19;6.23;;;5.20;;
12774;SDS011;6451;42.630;23.382;2023-03-22T11:36:47;6.40;;;5.80;;
12774;SDS011;6451;42.630;23.382;2023-03-22T11:39:21;6.53;;;5.50;;
12774;SDS011;6451;42.630;23.382;2023-03-22T11:41:50;7.20;;;6.33;;
12774;SDS011;6451;42.630;23.382;2023-03-22T11:44:20;7.37;;;6.67;;
12774;SDS011;6451;42.630;23.382;2023-03-22T11:46:49;7.10;;;6.40;;
12774;SDS011;6451;42.630;23.382;2023-03-22T11:49:22;8.00;;;7.20;;
12774;SDS011;6451;42.630;23.382;2023-03-22T11:51:53;7.93;;;7.13;;
12774;SDS011;6451;42.630;23.382;2023-03-22T11:54:24;8.03;;;7.03;;
12774;SDS011;6451;42.630;23.382;2023-03-22T11:56:55;7.20;;;6.50;;
12774;SDS011;6451;42.630;23.382;2023-03-22T11:59:26;9.43;;;6.67;;
12774;SDS011;6451;42.630;23.382;2023-03-22T12:01:58;7.60;;;6.37;;
12774;SDS011;6451;42.630;23.382;2023-03-22T12:04:32;7.03;;;6.33;;
12774;SDS011;6451;42.630;23.382;2023-03-22T12:07:02;8.03;;;7.20;;
12774;SDS011;6451;42.630;23.382;2023-03-22T12:09:35;7.43;;;6.70;;
12774;SDS011;6451;42.630;23.382;2023-03-22T12:12:08;7.63;;;6.67;;
12774;SDS011;6451;42.630;23.382;2023-03-22T12:14:42;7.33;;;6.30;;
12774;SDS011;6451;42.630;23.382;2023-03-22T12:17:19;9.47;;;7.10;;
12774;SDS011;6451;42.630;23.382;2023-03-22T12:22:30;8.30;;;6.90;;
12774;SDS011;6451;42.630;23.382;2023-03-22T12:24:58;9.07;;;7.57;;
12774;SDS011;6451;42.630;23.382;2023-03-22T12:27:29;8.37;;;7.27;;
12774;SDS011;6451;42.630;23.382;2023-03-22T12:30:00;9.07;;;8.13;;
12774;SDS011;6451;42.630;23.382;2023-03-22T12:32:36;8.87;;;7.93;;
12774;SDS011;6451;42.630;23.382;2023-03-22T12:35:07;8.60;;;7.80;;
12774;SDS011;6451;42.630;23.382;2023-03-22T12:37:40;12.47;;;8.27;;
12774;SDS011;6451;42.630;23.382;2023-03-22T12:40:14;8.47;;;7.53;;
12774;SDS011;6451;42.630;23.382;2023-03-22T12:42:47;8.23;;;7.43;;
12774;SDS011;6451;42.630;23.382;2023-03-22T12:45:21;10.10;;;7.33;;
12774;SDS011;6451;42.630;23.382;2023-03-22T12:47:54;9.33;;;7.77;;
12774;SDS011;6451;42.630;23.382;2023-03-22T12:50:27;8.37;;;6.33;;
12774;SDS011;6451;42.630;23.382;2023-03-22T12:52:59;9.23;;;5.40;;
12774;SDS011;6451;42.630;23.382;2023-03-22T12:55:29;7.47;;;5.80;;
12774;SDS011;6451;42.630;23.382;2023-03-22T12:57:58;5.57;;;5.07;;
12774;SDS011;6451;42.630;23.382;2023-03-22T13:00:26;6.40;;;5.60;;
12774;SDS011;6451;42.630;23.382;2023-03-22T13:03:00;9.73;;;4.90;;
12774;SDS011;6451;42.630;23.382;2023-03-22T13:05:32;5.50;;;5.00;;
12774;SDS011;6451;42.630;23.382;2023-03-22T13:08:01;6.27;;;5.33;;
12774;SDS011;6451;42.630;23.382;2023-03-22T13:10:46;5.70;;;5.20;;
12774;SDS011;6451;42.630;23.382;2023-03-22T13:16:17;5.53;;;5.03;;
12774;SDS011;6451;42.630;23.382;2023-03-22T13:18:58;5.63;;;4.17;;
12774;SDS011;6451;42.630;23.382;2023-03-22T13:21:42;6.77;;;3.70;;
12774;SDS011;6451;42.630;23.382;2023-03-22T13:26:56;5.10;;;4.20;;
12774;SDS011;6451;42.630;23.382;2023-03-22T13:29:33;4.53;;;3.10;;
12774;SDS011;6451;42.630;23.382;2023-03-22T13:32:04;3.60;;;3.30;;
12774;SDS011;6451;42.630;23.382;2023-03-22T13:34:50;4.63;;;3.60;;
12774;SDS011;6451;42.630;23.382;2023-03-22T13:37:20;4.00;;;3.43;;
12774;SDS011;6451;42.630;23.382;2023-03-22T13:39:55;4.90;;;3.40;;
12774;SDS011;6451;42.630;23.382;2023-03-22T13:42:27;8.47;;;3.70;;
12774;SDS011;6451;42.630;23.382;2023-03-22T13:45:01;3.83;;;3.43;;
12774;SDS011;6451;42.630;23.382;2023-03-22T13:47:34;4.07;;;3.60;;
12774;SDS011;6451;42.630;23.382;2023-03-22T13:50:11;6.67;;;3.60;;
12774;SDS011;6451;42.630;23.382;2023-03-22T13:52:42;5.67;;;3.50;;
12774;SDS011;6451;42.630;23.382;2023-03-22T13:55:35;4.53;;;3.53;;
12774;SDS011;6451;42.630;23.382;2023-03-22T13:58:08;5.73;;;3.57;;
12774;SDS011;6451;42.630;23.382;2023-03-22T14:00:39;4.23;;;3.53;;
12774;SDS011;6451;42.630;23.382;2023-03-22T14:03:16;5.23;;;3.93;;
12774;SDS011;6451;42.630;23.382;2023-03-22T14:06:00;6.13;;;3.97;;
12774;SDS011;6451;42.630;23.382;2023-03-22T14:08:31;5.97;;;3.50;;
12774;SDS011;6451;42.630;23.382;2023-03-22T14:11:02;6.00;;;3.73;;
12774;SDS011;6451;42.630;23.382;2023-03-22T14:13:42;4.37;;;3.63;;
12774;SDS011;6451;42.630;23.382;2023-03-22T14:16:14;4.03;;;3.40;;
12774;SDS011;6451;42.630;23.382;2023-03-22T14:18:45;4.87;;;4.30;;
12774;SDS011;6451;42.630;23.382;2023-03-22T14:21:16;15.33;;;12.80;;
12774;SDS011;6451;42.630;23.382;2023-03-22T14:23:47;12.90;;;9.13;;
12774;SDS011;6451;42.630;23.382;2023-03-22T14:26:17;4.70;;;4.20;;
12774;SDS011;6451;42.630;23.382;2023-03-22T14:28:47;4.40;;;4.00;;
12774;SDS011;6451;42.630;23.382;2023-03-22T14:31:16;6.40;;;5.40;;
12774;SDS011;6451;42.630;23.382;2023-03-22T14:33:47;6.83;;;4.80;;
12774;SDS011;6451;42.630;23.382;2023-03-22T14:36:17;5.67;;;4.27;;
12774;SDS011;6451;42.630;23.382;2023-03-22T14:38:45;4.90;;;4.20;;
12774;SDS011;6451;42.630;23.382;2023-03-22T14:41:15;5.53;;;4.73;;
12774;SDS011;6451;42.630;23.382;2023-03-22T14:43:44;5.53;;;4.93;;
12774;SDS011;6451;42.630;23.382;2023-03-22T14:46:14;8.60;;;4.93;;
12774;SDS011;6451;42.630;23.382;2023-03-22T14:48:46;6.03;;;4.80;;
12774;SDS011;6451;42.630;23.382;2023-03-22T14:51:17;6.97;;;4.80;;
12774;SDS011;6451;42.630;23.382;2023-03-22T14:53:48;6.13;;;5.03;;
12774;SDS011;6451;42.630;23.382;2023-03-22T14:56:16;5.10;;;4.60;;
12774;SDS011;6451;42.630;23.382;2023-03-22T14:58:47;6.33;;;5.20;;
12774;SDS011;6451;42.630;23.382;2023-03-22T15:01:19;7.40;;;5.80;;
12774;SDS011;6451;42.630;23.382;2023-03-22T15:03:50;7.10;;;6.10;;
12774;SDS011;6451;42.630;23.382;2023-03-22T15:06:24;8.37;;;5.70;;
12774;SDS011;6451;42.630;23.382;2023-03-22T15:08:54;7.90;;;6.40;;
12774;SDS011;6451;42.630;23.382;2023-03-22T15:11:29;6.97;;;6.07;;
12774;SDS011;6451;42.630;23.382;2023-03-22T15:13:56;23.20;;;19.23;;
12774;SDS011;6451;42.630;23.382;2023-03-22T15:16:24;16.20;;;13.87;;
12774;SDS011;6451;42.630;23.382;2023-03-22T15:18:55;8.17;;;7.20;;
12774;SDS011;6451;42.630;23.382;2023-03-22T15:21:22;7.60;;;6.70;;